sensor_id;sensor_type;location;lat;lon;timestamp;pressure;altitude;pressure_sealevel;temperature;humidity
30554;BME280;17335;50.720;7.452;2023-03-01T00:01:05;100467.06;;;-4.42;100.00
30554;BME280;17335;50.720;7.452;2023-03-01T00:03:33;100467.91;;;-4.40;100.00
30554;BME280;17335;50.720;7.452;2023-03-01T00:06:00;100463.47;;;-4.35;100.00
30554;BME280;17335;50.720;7.452;2023-03-01T00:08:27;100471.34;;;-4.37;100.00
30554;BME280;17335;50.720;7.452;2023-03-01T00:13:33;100454.78;;;-4.37;100.00
30554;BME280;17335;50.720;7.452;2023-03-01T00:16:08;100457.38;;;-4.37;100.00
30554;BME280;17335;50.720;7.452;2023-03-01T00:18:35;100454.88;;;-4.42;100.00
30554;BME280;17335;50.720;7.452;2023-03-01T00:21:02;100451.25;;;-4.35;100.00
30554;BME280;17335;50.720;7.452;2023-03-01T00:23:29;100458.22;;;-4.35;100.00
30554;BME280;17335;50.720;7.452;2023-03-01T00:25:56;100459.94;;;-4.31;100.00
30554;BME280;17335;50.720;7.452;2023-03-01T00:28:22;100456.47;;;-4.33;100.00
30554;BME280;17335;50.720;7.452;2023-03-01T00:30:49;100459.97;;;-4.34;100.00
30554;BME280;17335;50.720;7.452;2023-03-01T00:33:16;100457.38;;;-4.36;100.00
30554;BME280;17335;50.720;7.452;2023-03-01T00:35:43;100470.53;;;-4.40;100.00
30554;BME280;17335;50.720;7.452;2023-03-01T00:38:10;100472.44;;;-4.48;100.00
30554;BME280;17335;50.720;7.452;2023-03-01T00:40:37;100477.72;;;-4.52;100.00
30554;BME280;17335;50.720;7.452;2023-03-01T00:43:04;100483.94;;;-4.59;100.00
30554;BME280;17335;50.720;7.452;2023-03-01T00:45:30;100477.09;;;-4.71;100.00
30554;BME280;17335;50.720;7.452;2023-03-01T00:47:57;100475.38;;;-4.73;100.00
30554;BME280;17335;50.720;7.452;2023-03-01T00:50:25;100470.97;;;-4.71;100.00
30554;BME280;17335;50.720;7.452;2023-03-01T00:52:53;100473.66;;;-4.76;100.00
30554;BME280;17335;50.720;7.452;2023-03-01T00:55:20;100471.03;;;-4.74;100.00
30554;BME280;17335;50.720;7.452;2023-03-01T00:57:47;100476.31;;;-4.77;100.00
30554;BME280;17335;50.720;7.452;2023-03-01T01:00:13;100474.56;;;-4.78;100.00
30554;BME280;17335;50.720;7.452;2023-03-01T01:02:40;100472.88;;;-4.81;100.00
30554;BME280;17335;50.720;7.452;2023-03-01T01:05:07;100478.97;;;-4.82;100.00
30554;BME280;17335;50.720;7.452;2023-03-01T01:07:34;100470.25;;;-4.81;100.00
30554;BME280;17335;50.720;7.452;2023-03-01T01:10:01;100467.69;;;-4.85;100.00
30554;BME280;17335;50.720;7.452;2023-03-01T01:12:28;100471.19;;;-4.86;100.00
30554;BME280;17335;50.720;7.452;2023-03-01T01:14:54;100462.47;;;-4.88;100.00
30554;BME280;17335;50.720;7.452;2023-03-01T01:17:21;100451.97;;;-4.85;100.00
30554;BME280;17335;50.720;7.452;2023-03-01T01:19:48;100449.38;;;-4.87;100.00
30554;BME280;17335;50.720;7.452;2023-03-01T01:22:14;100444.06;;;-4.82;100.00
30554;BME280;17335;50.720;7.452;2023-03-01T01:24:41;100440.63;;;-4.84;100.00
30554;BME280;17335;50.720;7.452;2023-03-01T01:27:08;100433.59;;;-4.82;100.00
30554;BME280;17335;50.720;7.452;2023-03-01T01:29:34;100436.25;;;-4.85;100.00
30554;BME280;17335;50.720;7.452;2023-03-01T01:32:01;100427.56;;;-4.89;100.00
30554;BME280;17335;50.720;7.452;2023-03-01T01:34:27;100417.97;;;-4.90;100.00
30554;BME280;17335;50.720;7.452;2023-03-01T01:36:54;100418.03;;;-4.93;100.00
30554;BME280;17335;50.720;7.452;2023-03-01T01:39:22;100424.13;;;-4.93;100.00
30554;BME280;17335;50.720;7.452;2023-03-01T01:41:49;100423.25;;;-4.92;100.00
30554;BME280;17335;50.720;7.452;2023-03-01T01:44:27;100418.84;;;-4.90;100.00
30554;BME280;17335;50.720;7.452;2023-03-01T01:46:57;100418.06;;;-4.95;100.00
30554;BME280;17335;50.720;7.452;2023-03-01T01:49:29;100410.22;;;-4.98;100.00
30554;BME280;17335;50.720;7.452;2023-03-01T01:57:17;100415.72;;;-5.18;100.00
30554;BME280;17335;50.720;7.452;2023-03-01T01:59:50;100417.44;;;-5.15;100.00
30554;BME280;17335;50.720;7.452;2023-03-01T02:02:17;100421.78;;;-5.14;100.00
30554;BME280;17335;50.720;7.452;2023-03-01T02:04:45;100417.41;;;-5.12;100.00
30554;BME280;17335;50.720;7.452;2023-03-01T02:07:18;100427.00;;;-5.14;100.00
30554;BME280;17335;50.720;7.452;2023-03-01T02:09:48;100420.94;;;-5.18;100.00
30554;BME280;17335;50.720;7.452;2023-03-01T02:12:16;100432.41;;;-5.27;100.00
30554;BME280;17335;50.720;7.452;2023-03-01T02:14:44;100428.97;;;-5.30;100.00
30554;BME280;17335;50.720;7.452;2023-03-01T02:17:13;100431.56;;;-5.29;100.00
30554;BME280;17335;50.720;7.452;2023-03-01T02:22:36;100410.63;;;-5.29;100.00
30554;BME280;17335;50.720;7.452;2023-03-01T02:30:30;100404.44;;;-5.24;100.00
30554;BME280;17335;50.720;7.452;2023-03-01T02:33:00;100403.53;;;-5.19;100.00
30554;BME280;17335;50.720;7.452;2023-03-01T02:35:34;100396.66;;;-5.28;100.00
30554;BME280;17335;50.720;7.452;2023-03-01T02:38:03;100384.56;;;-5.38;100.00
30554;BME280;17335;50.720;7.452;2023-03-01T02:40:30;100391.56;;;-5.40;100.00
30554;BME280;17335;50.720;7.452;2023-03-01T02:42:58;100388.16;;;-5.47;100.00
30554;BME280;17335;50.720;7.452;2023-03-01T02:45:26;100380.19;;;-5.37;100.00
30554;BME280;17335;50.720;7.452;2023-03-01T02:47:54;100385.41;;;-5.36;100.00
30554;BME280;17335;50.720;7.452;2023-03-01T02:53:15;100391.44;;;-5.28;100.00
30554;BME280;17335;50.720;7.452;2023-03-01T02:55:43;100392.44;;;-5.38;100.00
30554;BME280;17335;50.720;7.452;2023-03-01T02:58:10;100386.44;;;-5.48;100.00
30554;BME280;17335;50.720;7.452;2023-03-01T03:00:39;100385.56;;;-5.47;100.00
30554;BME280;17335;50.720;7.452;2023-03-01T03:03:13;100379.44;;;-5.47;100.00
30554;BME280;17335;50.720;7.452;2023-03-01T03:05:41;100376.84;;;-5.49;100.00
30554;BME280;17335;50.720;7.452;2023-03-01T03:08:08;100369.91;;;-5.53;100.00
30554;BME280;17335;50.720;7.452;2023-03-01T03:10:37;100374.28;;;-5.53;100.00
30554;BME280;17335;50.720;7.452;2023-03-01T03:13:10;100374.22;;;-5.50;100.00
30554;BME280;17335;50.720;7.452;2023-03-01T03:15:38;100371.69;;;-5.53;100.00
30554;BME280;17335;50.720;7.452;2023-03-01T03:18:10;100358.59;;;-5.53;100.00
30554;BME280;17335;50.720;7.452;2023-03-01T03:20:39;100361.25;;;-5.58;100.00
30554;BME280;17335;50.720;7.452;2023-03-01T03:23:06;100351.59;;;-5.51;100.00
30554;BME280;17335;50.720;7.452;2023-03-01T03:25:33;100357.69;;;-5.51;100.00
30554;BME280;17335;50.720;7.452;2023-03-01T03:28:04;100347.25;;;-5.54;100.00
30554;BME280;17335;50.720;7.452;2023-03-01T03:30:38;100342.78;;;-5.46;100.00
30554;BME280;17335;50.720;7.452;2023-03-01T03:33:06;100340.28;;;-5.52;100.00
30554;BME280;17335;50.720;7.452;2023-03-01T03:35:37;100340.31;;;-5.58;100.00
30554;BME280;17335;50.720;7.452;2023-03-01T03:38:07;100343.78;;;-5.56;100.00
30554;BME280;17335;50.720;7.452;2023-03-01T03:40:40;100350.72;;;-5.52;100.00
30554;BME280;17335;50.720;7.452;2023-03-01T03:43:10;100347.22;;;-5.51;100.00
30554;BME280;17335;50.720;7.452;2023-03-01T03:45:37;100349.84;;;-5.52;100.00
30554;BME280;17335;50.720;7.452;2023-03-01T03:48:06;100355.16;;;-5.58;100.00
30554;BME280;17335;50.720;7.452;2023-03-01T03:50:33;100354.22;;;-5.54;100.00
30554;BME280;17335;50.720;7.452;2023-03-01T03:53:01;100351.66;;;-5.57;100.00
30554;BME280;17335;50.720;7.452;2023-03-01T03:55:28;100352.59;;;-5.61;100.00
30554;BME280;17335;50.720;7.452;2023-03-01T03:57:58;100353.56;;;-5.70;100.00
30554;BME280;17335;50.720;7.452;2023-03-01T04:00:28;100337.78;;;-5.66;100.00
30554;BME280;17335;50.720;7.452;2023-03-01T04:02:54;100332.53;;;-5.64;100.00
30554;BME280;17335;50.720;7.452;2023-03-01T04:05:23;100333.47;;;-5.67;100.00
30554;BME280;17335;50.720;7.452;2023-03-01T04:07:50;100327.31;;;-5.66;100.00
30554;BME280;17335;50.720;7.452;2023-03-01T04:10:29;100319.56;;;-5.70;100.00
30554;BME280;17335;50.720;7.452;2023-03-01T04:12:55;100319.53;;;-5.67;100.00
30554;BME280;17335;50.720;7.452;2023-03-01T04:15:24;100318.59;;;-5.63;100.00
30554;BME280;17335;50.720;7.452;2023-03-01T04:17:52;100318.41;;;-5.49;100.00
30554;BME280;17335;50.720;7.452;2023-03-01T04:20:24;100322.72;;;-5.45;100.00
30554;BME280;17335;50.720;7.452;2023-03-01T04:23:12;100329.72;;;-5.47;100.00
30554;BME280;17335;50.720;7.452;2023-03-01T04:25:47;100320.25;;;-5.57;100.00
30554;BME280;17335;50.720;7.452;2023-03-01T04:28:26;100322.06;;;-5.64;100.00
30554;BME280;17335;50.720;7.452;2023-03-01T04:30:54;100336.16;;;-5.74;100.00
30554;BME280;17335;50.720;7.452;2023-03-01T04:33:22;100330.09;;;-5.78;100.00
30554;BME280;17335;50.720;7.452;2023-03-01T04:35:49;100317.00;;;-5.78;100.00
30554;BME280;17335;50.720;7.452;2023-03-01T04:38:17;100321.38;;;-5.78;100.00
30554;BME280;17335;50.720;7.452;2023-03-01T04:40:44;100325.72;;;-5.76;100.00
30554;BME280;17335;50.720;7.452;2023-03-01T04:43:12;100328.41;;;-5.82;100.00
30554;BME280;17335;50.720;7.452;2023-03-01T04:45:42;100331.91;;;-5.83;100.00
30554;BME280;17335;50.720;7.452;2023-03-01T04:48:09;100322.19;;;-5.72;100.00
30554;BME280;17335;50.720;7.452;2023-03-01T04:50:35;100326.44;;;-5.65;100.00
30554;BME280;17335;50.720;7.452;2023-03-01T04:53:02;100323.00;;;-5.68;100.00
30554;BME280;17335;50.720;7.452;2023-03-01T04:55:29;100322.03;;;-5.59;100.00
30554;BME280;17335;50.720;7.452;2023-03-01T04:57:55;100323.72;;;-5.55;100.00
30554;BME280;17335;50.720;7.452;2023-03-01T05:00:23;100320.09;;;-5.45;100.00
30554;BME280;17335;50.720;7.452;2023-03-01T05:02:53;100319.97;;;-5.33;100.00
30554;BME280;17335;50.720;7.452;2023-03-01T05:05:34;100326.94;;;-5.35;100.00
30554;BME280;17335;50.720;7.452;2023-03-01T05:08:03;100324.25;;;-5.30;100.00
30554;BME280;17335;50.720;7.452;2023-03-01T05:10:33;100326.84;;;-5.25;100.00
30554;BME280;17335;50.720;7.452;2023-03-01T05:13:02;100312.88;;;-5.26;100.00
30554;BME280;17335;50.720;7.452;2023-03-01T05:15:30;100313.84;;;-5.33;100.00
30554;BME280;17335;50.720;7.452;2023-03-01T05:17:59;100311.31;;;-5.38;100.00
30554;BME280;17335;50.720;7.452;2023-03-01T05:20:27;100315.63;;;-5.35;100.00
30554;BME280;17335;50.720;7.452;2023-03-01T05:22:56;100319.13;;;-5.36;100.00
30554;BME280;17335;50.720;7.452;2023-03-01T05:25:22;100323.41;;;-5.31;100.00
30554;BME280;17335;50.720;7.452;2023-03-01T05:27:49;100319.00;;;-5.29;100.00
30554;BME280;17335;50.720;7.452;2023-03-01T05:30:17;100320.00;;;-5.36;100.00
30554;BME280;17335;50.720;7.452;2023-03-01T05:32:46;100317.53;;;-5.47;100.00
30554;BME280;17335;50.720;7.452;2023-03-01T05:35:16;100315.88;;;-5.55;100.00
30554;BME280;17335;50.720;7.452;2023-03-01T05:37:45;100316.81;;;-5.61;100.00
30554;BME280;17335;50.720;7.452;2023-03-01T05:40:17;100313.38;;;-5.66;100.00
30554;BME280;17335;50.720;7.452;2023-03-01T05:42:46;100313.50;;;-5.74;100.00
30554;BME280;17335;50.720;7.452;2023-03-01T05:45:14;100311.72;;;-5.72;100.00
30554;BME280;17335;50.720;7.452;2023-03-01T05:47:42;100315.22;;;-5.73;100.00
30554;BME280;17335;50.720;7.452;2023-03-01T05:50:18;100311.72;;;-5.72;100.00
30554;BME280;17335;50.720;7.452;2023-03-01T05:52:50;100316.84;;;-5.62;100.00
30554;BME280;17335;50.720;7.452;2023-03-01T05:55:19;100308.97;;;-5.61;100.00
30554;BME280;17335;50.720;7.452;2023-03-01T05:57:46;100313.22;;;-5.52;100.00
30554;BME280;17335;50.720;7.452;2023-03-01T06:00:15;100314.84;;;-5.45;100.00
30554;BME280;17335;50.720;7.452;2023-03-01T06:02:42;100302.53;;;-5.37;100.00
30554;BME280;17335;50.720;7.452;2023-03-01T06:05:10;100308.69;;;-5.39;100.00
30554;BME280;17335;50.720;7.452;2023-03-01T06:07:37;100311.34;;;-5.41;100.00
30554;BME280;17335;50.720;7.452;2023-03-01T06:10:04;100306.97;;;-5.42;100.00
30554;BME280;17335;50.720;7.452;2023-03-01T06:12:33;100307.56;;;-5.21;100.00
30554;BME280;17335;50.720;7.452;2023-03-01T06:15:01;100309.03;;;-5.02;100.00
30554;BME280;17335;50.720;7.452;2023-03-01T06:17:33;100299.41;;;-4.98;100.00
30554;BME280;17335;50.720;7.452;2023-03-01T06:20:12;100299.41;;;-5.00;100.00
30554;BME280;17335;50.720;7.452;2023-03-01T06:22:40;100306.53;;;-5.10;100.00
30554;BME280;17335;50.720;7.452;2023-03-01T06:25:08;100303.09;;;-5.15;100.00
30554;BME280;17335;50.720;7.452;2023-03-01T06:27:36;100303.94;;;-5.13;100.00
30554;BME280;17335;50.720;7.452;2023-03-01T06:30:03;100301.34;;;-5.13;100.00
30554;BME280;17335;50.720;7.452;2023-03-01T06:32:30;100299.69;;;-5.18;100.00
30554;BME280;17335;50.720;7.452;2023-03-01T06:34:57;100312.75;;;-5.18;100.00
30554;BME280;17335;50.720;7.452;2023-03-01T06:37:25;100307.53;;;-5.18;100.00
30554;BME280;17335;50.720;7.452;2023-03-01T06:39:52;100300.56;;;-5.19;100.00
30554;BME280;17335;50.720;7.452;2023-03-01T06:42:18;100303.97;;;-5.14;100.00
30554;BME280;17335;50.720;7.452;2023-03-01T06:44:44;100306.75;;;-5.25;100.00
30554;BME280;17335;50.720;7.452;2023-03-01T06:47:12;100308.53;;;-5.27;100.00
30554;BME280;17335;50.720;7.452;2023-03-01T06:49:39;100309.53;;;-5.36;100.00
30554;BME280;17335;50.720;7.452;2023-03-01T06:52:05;100315.63;;;-5.37;100.00
30554;BME280;17335;50.720;7.452;2023-03-01T06:54:32;100313.91;;;-5.38;100.00
30554;BME280;17335;50.720;7.452;2023-03-01T06:56:58;100306.06;;;-5.38;100.00
30554;BME280;17335;50.720;7.452;2023-03-01T06:59:25;100311.31;;;-5.38;100.00
30554;BME280;17335;50.720;7.452;2023-03-01T07:01:51;100300.66;;;-5.25;100.00
30554;BME280;17335;50.720;7.452;2023-03-01T07:04:18;100304.09;;;-5.22;100.00
30554;BME280;17335;50.720;7.452;2023-03-01T07:06:45;100302.28;;;-5.18;100.00
30554;BME280;17335;50.720;7.452;2023-03-01T07:09:11;100308.19;;;-5.04;100.00
30554;BME280;17335;50.720;7.452;2023-03-01T07:11:38;100306.34;;;-4.99;100.00
30554;BME280;17335;50.720;7.452;2023-03-01T07:14:04;100318.50;;;-4.92;100.00
30554;BME280;17335;50.720;7.452;2023-03-01T07:16:31;100312.16;;;-4.78;100.00
30554;BME280;17335;50.720;7.452;2023-03-01T07:18:58;100306.09;;;-4.80;100.00
30554;BME280;17335;50.720;7.452;2023-03-01T07:21:26;100302.44;;;-4.72;100.00
30554;BME280;17335;50.720;7.452;2023-03-01T07:23:52;100306.59;;;-4.58;100.00
30554;BME280;17335;50.720;7.452;2023-03-01T07:26:19;100297.75;;;-4.53;100.00
30554;BME280;17335;50.720;7.452;2023-03-01T07:28:45;100298.53;;;-4.46;100.00
30554;BME280;17335;50.720;7.452;2023-03-01T07:31:12;100290.53;;;-4.38;100.00
30554;BME280;17335;50.720;7.452;2023-03-01T07:33:38;100295.59;;;-4.29;100.00
30554;BME280;17335;50.720;7.452;2023-03-01T07:36:05;100279.81;;;-4.26;100.00
30554;BME280;17335;50.720;7.452;2023-03-01T07:38:32;100281.28;;;-4.11;100.00
30554;BME280;17335;50.720;7.452;2023-03-01T07:41:00;100278.53;;;-4.03;100.00
30554;BME280;17335;50.720;7.452;2023-03-01T07:43:29;100267.94;;;-3.99;100.00
30554;BME280;17335;50.720;7.452;2023-03-01T07:46:03;100266.81;;;-3.87;100.00
30554;BME280;17335;50.720;7.452;2023-03-01T07:48:31;100262.31;;;-3.80;100.00
30554;BME280;17335;50.720;7.452;2023-03-01T07:51:01;100268.19;;;-3.67;100.00
30554;BME280;17335;50.720;7.452;2023-03-01T07:53:28;100267.91;;;-3.55;100.00
30554;BME280;17335;50.720;7.452;2023-03-01T07:56:04;100255.50;;;-3.47;100.00
30554;BME280;17335;50.720;7.452;2023-03-01T07:58:34;100262.31;;;-3.38;100.00
30554;BME280;17335;50.720;7.452;2023-03-01T08:01:02;100263.06;;;-3.33;100.00
30554;BME280;17335;50.720;7.452;2023-03-01T08:03:29;100272.56;;;-3.27;100.00
30554;BME280;17335;50.720;7.452;2023-03-01T08:05:56;100268.13;;;-3.25;100.00
30554;BME280;17335;50.720;7.452;2023-03-01T08:08:22;100273.22;;;-3.17;100.00
30554;BME280;17335;50.720;7.452;2023-03-01T08:10:49;100263.97;;;-2.96;100.00
30554;BME280;17335;50.720;7.452;2023-03-01T08:13:16;100265.38;;;-2.81;100.00
30554;BME280;17335;50.720;7.452;2023-03-01T08:15:49;100257.09;;;-2.66;100.00
30554;BME280;17335;50.720;7.452;2023-03-01T08:18:17;100262.00;;;-2.52;100.00
30554;BME280;17335;50.720;7.452;2023-03-01T08:20:45;100250.50;;;-2.48;100.00
30554;BME280;17335;50.720;7.452;2023-03-01T08:23:12;100250.91;;;-2.31;100.00
30554;BME280;17335;50.720;7.452;2023-03-01T08:25:39;100250.25;;;-2.06;100.00
30554;BME280;17335;50.720;7.452;2023-03-01T08:28:05;100247.44;;;-2.00;100.00
30554;BME280;17335;50.720;7.452;2023-03-01T08:30:32;100254.13;;;-1.88;100.00
30554;BME280;17335;50.720;7.452;2023-03-01T08:32:59;100251.44;;;-1.86;100.00
30554;BME280;17335;50.720;7.452;2023-03-01T08:35:26;100245.81;;;-1.74;100.00
30554;BME280;17335;50.720;7.452;2023-03-01T08:37:52;100257.84;;;-1.65;100.00
30554;BME280;17335;50.720;7.452;2023-03-01T08:40:19;100248.34;;;-1.41;100.00
30554;BME280;17335;50.720;7.452;2023-03-01T08:42:45;100241.91;;;-1.03;100.00
30554;BME280;17335;50.720;7.452;2023-03-01T08:45:12;100241.22;;;-0.83;100.00
30554;BME280;17335;50.720;7.452;2023-03-01T08:47:40;100236.38;;;-0.68;100.00
30554;BME280;17335;50.720;7.452;2023-03-01T08:50:07;100235.97;;;-0.56;100.00
30554;BME280;17335;50.720;7.452;2023-03-01T08:52:34;100244.16;;;-0.39;100.00
30554;BME280;17335;50.720;7.452;2023-03-01T08:55:00;100243.91;;;-0.31;100.00
30554;BME280;17335;50.720;7.452;2023-03-01T08:57:28;100244.66;;;-0.27;100.00
30554;BME280;17335;50.720;7.452;2023-03-01T08:59:54;100231.41;;;-0.26;100.00
30554;BME280;17335;50.720;7.452;2023-03-01T09:02:22;100235.59;;;-0.20;100.00
30554;BME280;17335;50.720;7.452;2023-03-01T09:04:49;100237.00;;;-0.10;100.00
30554;BME280;17335;50.720;7.452;2023-03-01T09:07:16;100236.53;;;0.03;100.00
30554;BME280;17335;50.720;7.452;2023-03-01T09:09:42;100232.50;;;0.17;100.00
30554;BME280;17335;50.720;7.452;2023-03-01T09:12:09;100234.13;;;0.20;100.00
30554;BME280;17335;50.720;7.452;2023-03-01T09:14:35;100232.28;;;0.22;100.00
30554;BME280;17335;50.720;7.452;2023-03-01T09:17:04;100227.00;;;0.22;100.00
30554;BME280;17335;50.720;7.452;2023-03-01T09:19:31;100226.91;;;0.25;100.00
30554;BME280;17335;50.720;7.452;2023-03-01T09:21:57;100224.69;;;0.38;100.00
30554;BME280;17335;50.720;7.452;2023-03-01T09:24:25;100221.84;;;0.43;100.00
30554;BME280;17335;50.720;7.452;2023-03-01T09:26:55;100219.72;;;0.52;100.00
30554;BME280;17335;50.720;7.452;2023-03-01T09:29:22;100207.81;;;0.64;100.00
30554;BME280;17335;50.720;7.452;2023-03-01T09:31:49;100214.19;;;0.81;100.00
30554;BME280;17335;50.720;7.452;2023-03-01T09:34:15;100208.00;;;0.82;100.00
30554;BME280;17335;50.720;7.452;2023-03-01T09:36:45;100199.09;;;0.84;100.00
30554;BME280;17335;50.720;7.452;2023-03-01T09:39:12;100203.25;;;0.90;100.00
30554;BME280;17335;50.720;7.452;2023-03-01T09:47:19;100193.13;;;1.22;100.00
30554;BME280;17335;50.720;7.452;2023-03-01T09:52:50;100178.13;;;1.43;100.00
30554;BME280;17335;50.720;7.452;2023-03-01T10:00:42;100175.38;;;1.65;100.00
30554;BME280;17335;50.720;7.452;2023-03-01T10:08:34;100178.44;;;1.76;100.00
30554;BME280;17335;50.720;7.452;2023-03-01T10:11:11;100165.00;;;1.81;100.00
30554;BME280;17335;50.720;7.452;2023-03-01T10:13:55;100164.50;;;1.92;100.00
30554;BME280;17335;50.720;7.452;2023-03-01T10:16:55;100155.22;;;2.02;100.00
30554;BME280;17335;50.720;7.452;2023-03-01T10:19:42;100160.91;;;2.13;100.00
30554;BME280;17335;50.720;7.452;2023-03-01T10:22:20;100143.19;;;2.33;100.00
30554;BME280;17335;50.720;7.452;2023-03-01T10:24:52;100148.28;;;2.37;100.00
30554;BME280;17335;50.720;7.452;2023-03-01T10:27:46;100147.72;;;2.31;100.00
30554;BME280;17335;50.720;7.452;2023-03-01T10:32:56;100136.94;;;2.53;100.00
30554;BME280;17335;50.720;7.452;2023-03-01T10:35:29;100130.47;;;2.58;100.00
30554;BME280;17335;50.720;7.452;2023-03-01T10:38:05;100134.41;;;2.69;100.00
30554;BME280;17335;50.720;7.452;2023-03-01T10:40:36;100129.47;;;2.78;100.00
30554;BME280;17335;50.720;7.452;2023-03-01T10:43:04;100118.97;;;2.77;100.00
30554;BME280;17335;50.720;7.452;2023-03-01T10:45:38;100116.41;;;2.93;100.00
30554;BME280;17335;50.720;7.452;2023-03-01T10:50:35;100097.84;;;3.10;100.00
30554;BME280;17335;50.720;7.452;2023-03-01T10:56:05;100095.75;;;3.17;100.00
30554;BME280;17335;50.720;7.452;2023-03-01T10:58:34;100094.41;;;3.26;100.00
30554;BME280;17335;50.720;7.452;2023-03-01T11:03:43;100082.91;;;3.43;100.00
30554;BME280;17335;50.720;7.452;2023-03-01T11:08:44;100093.56;;;3.59;96.08
30554;BME280;17335;50.720;7.452;2023-03-01T11:11:31;100092.44;;;3.63;93.95
30554;BME280;17335;50.720;7.452;2023-03-01T11:14:06;100094.19;;;3.80;95.87
30554;BME280;17335;50.720;7.452;2023-03-01T11:17:01;100074.00;;;3.93;94.24
30554;BME280;17335;50.720;7.452;2023-03-01T11:19:27;100064.50;;;4.05;88.60
30554;BME280;17335;50.720;7.452;2023-03-01T11:22:10;100071.53;;;4.22;82.43
30554;BME280;17335;50.720;7.452;2023-03-01T11:24:44;100074.94;;;4.24;82.74
30554;BME280;17335;50.720;7.452;2023-03-01T11:27:20;100078.91;;;4.17;82.60
30554;BME280;17335;50.720;7.452;2023-03-01T11:32:26;100056.16;;;4.27;81.07
30554;BME280;17335;50.720;7.452;2023-03-01T11:40:13;100047.06;;;4.31;77.66
30554;BME280;17335;50.720;7.452;2023-03-01T11:45:25;100026.84;;;4.59;71.38
30554;BME280;17335;50.720;7.452;2023-03-01T11:51:29;100020.47;;;4.77;68.96
30554;BME280;17335;50.720;7.452;2023-03-01T11:54:06;100021.44;;;4.76;68.67
30554;BME280;17335;50.720;7.452;2023-03-01T12:09:09;100000.34;;;4.87;61.22
30554;BME280;17335;50.720;7.452;2023-03-01T12:14:19;99991.66;;;5.14;61.81
30554;BME280;17335;50.720;7.452;2023-03-01T12:17:09;99986.09;;;5.17;59.53
30554;BME280;17335;50.720;7.452;2023-03-01T12:37:24;99964.53;;;5.92;56.08
30554;BME280;17335;50.720;7.452;2023-03-01T12:40:20;99962.81;;;6.06;55.58
30554;BME280;17335;50.720;7.452;2023-03-01T12:43:33;99960.34;;;6.03;53.56
30554;BME280;17335;50.720;7.452;2023-03-01T12:48:46;99942.78;;;6.13;55.92
30554;BME280;17335;50.720;7.452;2023-03-01T12:51:16;99946.38;;;6.12;58.58
30554;BME280;17335;50.720;7.452;2023-03-01T12:53:47;99945.69;;;6.23;59.66
30554;BME280;17335;50.720;7.452;2023-03-01T12:56:25;99946.38;;;6.12;59.82
30554;BME280;17335;50.720;7.452;2023-03-01T13:01:39;99934.28;;;5.93;55.35
30554;BME280;17335;50.720;7.452;2023-03-01T13:06:54;99931.19;;;6.14;56.45
30554;BME280;17335;50.720;7.452;2023-03-01T13:11:54;99922.56;;;6.36;55.75
30554;BME280;17335;50.720;7.452;2023-03-01T13:16:50;99921.19;;;6.30;56.26
30554;BME280;17335;50.720;7.452;2023-03-01T13:19:18;99916.81;;;6.29;53.10
30554;BME280;17335;50.720;7.452;2023-03-01T13:21:48;99916.91;;;6.28;52.09
30554;BME280;17335;50.720;7.452;2023-03-01T13:24:41;99919.69;;;6.39;52.89
30554;BME280;17335;50.720;7.452;2023-03-01T13:29:51;99912.47;;;6.54;53.70
30554;BME280;17335;50.720;7.452;2023-03-01T13:32:29;99902.44;;;6.57;51.07
30554;BME280;17335;50.720;7.452;2023-03-01T13:37:46;99894.13;;;6.62;50.82
30554;BME280;17335;50.720;7.452;2023-03-01T13:42:45;99888.69;;;6.76;50.61
30554;BME280;17335;50.720;7.452;2023-03-01T13:45:42;99889.53;;;6.77;48.87
30554;BME280;17335;50.720;7.452;2023-03-01T13:48:22;99894.34;;;6.85;47.81
30554;BME280;17335;50.720;7.452;2023-03-01T13:50:53;99881.06;;;6.96;48.88
30554;BME280;17335;50.720;7.452;2023-03-01T13:53:26;99877.56;;;7.08;47.51
30554;BME280;17335;50.720;7.452;2023-03-01T13:56:00;99875.44;;;7.01;48.04
30554;BME280;17335;50.720;7.452;2023-03-01T13:58:33;99880.00;;;7.11;49.98
30554;BME280;17335;50.720;7.452;2023-03-01T14:01:42;99877.94;;;7.15;48.04
30554;BME280;17335;50.720;7.452;2023-03-01T14:04:27;99870.44;;;7.33;49.10
30554;BME280;17335;50.720;7.452;2023-03-01T14:07:19;99866.25;;;7.42;48.51
30554;BME280;17335;50.720;7.452;2023-03-01T14:09:55;99861.06;;;7.27;46.71
30554;BME280;17335;50.720;7.452;2023-03-01T14:15:34;99870.47;;;7.20;47.18
30554;BME280;17335;50.720;7.452;2023-03-01T14:20:32;99851.13;;;7.29;47.19
30554;BME280;17335;50.720;7.452;2023-03-01T14:23:11;99849.47;;;7.16;45.11
30554;BME280;17335;50.720;7.452;2023-03-01T14:25:47;99845.59;;;7.20;45.59
30554;BME280;17335;50.720;7.452;2023-03-01T14:28:17;99845.97;;;7.39;47.39
30554;BME280;17335;50.720;7.452;2023-03-01T14:30:50;99844.25;;;7.38;47.73
30554;BME280;17335;50.720;7.452;2023-03-01T14:33:35;99842.84;;;7.45;48.37
30554;BME280;17335;50.720;7.452;2023-03-01T14:36:11;99841.88;;;7.46;48.45
30554;BME280;17335;50.720;7.452;2023-03-01T14:38:41;99842.31;;;7.40;47.83
30554;BME280;17335;50.720;7.452;2023-03-01T14:41:17;99844.16;;;7.40;46.67
30554;BME280;17335;50.720;7.452;2023-03-01T14:43:50;99830.16;;;7.36;48.08
30554;BME280;17335;50.720;7.452;2023-03-01T14:46:24;99829.69;;;7.42;47.47
30554;BME280;17335;50.720;7.452;2023-03-01T14:48:55;99832.88;;;7.47;47.28
30554;BME280;17335;50.720;7.452;2023-03-01T14:51:23;99826.38;;;7.51;47.63
30554;BME280;17335;50.720;7.452;2023-03-01T14:53:50;99829.47;;;7.45;47.06
30554;BME280;17335;50.720;7.452;2023-03-01T14:56:17;99825.75;;;7.48;46.25
30554;BME280;17335;50.720;7.452;2023-03-01T14:58:44;99826.81;;;7.45;48.04
30554;BME280;17335;50.720;7.452;2023-03-01T15:01:16;99826.06;;;7.43;45.12
30554;BME280;17335;50.720;7.452;2023-03-01T15:03:47;99811.13;;;7.41;43.71
30554;BME280;17335;50.720;7.452;2023-03-01T15:06:21;99807.59;;;7.40;44.11
30554;BME280;17335;50.720;7.452;2023-03-01T15:08:52;99799.41;;;7.55;45.00